Candia, New Hampshire
Current Conditions -  °F | °C
As of 3:53 AM on Wednesday 22 Oct 2014 (Local Time) from KMHT Reporting Station
Overcast Overcast  
Wind Chill: 50°   Ceiling: 1000
Heat Index: 50°   Visibility: 10mi
Dew Point: 46°   Wind: 8mph
Humidity: 86%   Direction: 20°NNE
Pressure: 30"   Gusts: NA
Location:  43.08°N, 71.28°W
Report Text: KMHT 220753Z 02007KT 10SM OVC010 10/08 A3000 RMK AO2 SLP172 T01000078
Loading
Personal Weather Stations






























Interactive Weather Map
Tropical Storm Tracking
New forecast layout! Learn more

10-Day Weather Forecast

Advertisements
Track Severe Weather on mobile